createdAt,value
2018-12-04T00:01:41.840Z,9.27
2018-12-04T00:04:10.187Z,9.27
2018-12-04T00:06:38.680Z,9.26
2018-12-04T00:09:07.734Z,9.29
2018-12-04T00:11:36.099Z,9.26
2018-12-04T00:14:05.225Z,9.23
2018-12-04T00:16:33.647Z,9.27
2018-12-04T00:19:02.291Z,9.29
2018-12-04T00:21:30.770Z,9.28
2018-12-04T00:23:59.203Z,9.28
2018-12-04T00:26:28.025Z,9.29
2018-12-04T00:28:56.401Z,9.32
2018-12-04T00:31:24.826Z,9.26
2018-12-04T00:33:53.484Z,9.23
2018-12-04T00:36:22.068Z,9.28
2018-12-04T00:38:50.506Z,9.33
2018-12-04T00:41:18.885Z,9.31
2018-12-04T00:43:47.252Z,9.38
2018-12-04T00:46:15.915Z,9.39
2018-12-04T00:48:44.183Z,9.39
2018-12-04T00:51:12.866Z,9.38
2018-12-04T00:53:41.490Z,9.45
2018-12-04T00:56:09.958Z,9.47
2018-12-04T00:58:38.234Z,9.56
2018-12-04T01:01:06.671Z,9.51
2018-12-04T01:03:35.214Z,9.54
2018-12-04T01:06:03.684Z,9.44
2018-12-04T01:08:32.393Z,9.59
2018-12-04T01:11:00.754Z,9.61
2018-12-04T01:13:29.109Z,9.59
2018-12-04T01:15:57.520Z,9.64
2018-12-04T01:18:26.088Z,9.63
2018-12-04T01:20:54.727Z,9.49
2018-12-04T01:23:23.158Z,9.50
2018-12-04T01:25:51.533Z,9.47
2018-12-04T01:28:19.888Z,9.53
2018-12-04T01:30:48.763Z,9.51
2018-12-04T01:33:17.144Z,9.51
2018-12-04T01:35:45.784Z,9.52
2018-12-04T01:38:14.208Z,9.49
2018-12-04T01:40:42.713Z,9.57
2018-12-04T01:43:11.029Z,9.60
2018-12-04T01:45:39.479Z,9.61
2018-12-04T01:48:07.830Z,9.67
2018-12-04T01:50:36.182Z,9.55
2018-12-04T01:53:04.599Z,9.59
2018-12-04T01:55:33.304Z,9.59
2018-12-04T01:58:01.646Z,9.67
2018-12-04T02:00:30.347Z,9.75
2018-12-04T02:02:58.609Z,9.75
2018-12-04T02:05:27.400Z,9.79
2018-12-04T02:07:55.734Z,9.77
2018-12-04T02:10:24.005Z,9.71
2018-12-04T02:12:52.287Z,9.69
2018-12-04T02:15:20.709Z,9.74
2018-12-04T02:17:48.969Z,9.72
2018-12-04T02:20:17.618Z,9.73
2018-12-04T02:22:46.333Z,9.68
2018-12-04T02:25:15.113Z,9.69
2018-12-04T02:27:43.648Z,9.80
2018-12-04T02:30:11.951Z,9.84
2018-12-04T02:32:40.210Z,9.88
2018-12-04T02:35:08.561Z,9.85
2018-12-04T02:37:37.260Z,9.91
2018-12-04T02:40:05.784Z,9.92
2018-12-04T02:42:34.589Z,9.90
2018-12-04T02:45:02.995Z,9.95
2018-12-04T02:47:31.256Z,9.95
2018-12-04T02:49:59.630Z,10.01
2018-12-04T02:52:28.043Z,10.13
2018-12-04T02:54:56.587Z,10.09
2018-12-04T02:57:24.837Z,10.15
2018-12-04T02:59:53.405Z,10.19
2018-12-04T03:02:21.653Z,10.18
2018-12-04T03:04:57.227Z,10.22
2018-12-04T03:07:25.687Z,10.32
2018-12-04T03:09:54.075Z,10.34
2018-12-04T03:12:22.332Z,10.33
2018-12-04T03:14:50.982Z,10.36
2018-12-04T03:17:19.245Z,10.35
2018-12-04T03:22:33.914Z,10.46
2018-12-04T03:25:02.164Z,10.42
2018-12-04T03:27:30.514Z,10.43
2018-12-04T03:29:58.811Z,10.35
2018-12-04T03:32:27.158Z,10.24
2018-12-04T03:34:55.579Z,10.03
2018-12-04T03:37:23.894Z,9.74
2018-12-04T03:39:52.540Z,9.52
2018-12-04T03:42:20.815Z,9.36
2018-12-04T03:44:49.127Z,9.28
2018-12-04T03:47:17.486Z,9.26
2018-12-04T03:49:46.727Z,9.08
2018-12-04T03:52:15.144Z,9.04
2018-12-04T03:54:43.778Z,8.90
2018-12-04T03:57:12.715Z,8.86
2018-12-04T03:59:41.119Z,8.85
2018-12-04T04:02:09.473Z,8.83
2018-12-04T04:04:37.930Z,8.76
2018-12-04T04:07:06.244Z,8.72
2018-12-04T04:09:34.512Z,8.64
2018-12-04T04:12:03.252Z,8.58
2018-12-04T04:14:31.828Z,8.51
2018-12-04T04:17:00.433Z,8.50
2018-12-04T04:19:29.079Z,8.43
2018-12-04T04:21:57.512Z,8.41
2018-12-04T04:24:25.883Z,8.34
2018-12-04T04:26:54.732Z,8.32
2018-12-04T04:29:23.051Z,8.31
2018-12-04T04:31:51.431Z,8.28
2018-12-04T04:34:19.694Z,8.28
2018-12-04T04:36:48.102Z,8.29
2018-12-04T04:39:16.362Z,8.33
2018-12-04T04:41:44.625Z,8.32
2018-12-04T04:44:13.322Z,8.29
2018-12-04T04:46:41.696Z,8.30
2018-12-04T04:49:10.243Z,8.32
2018-12-04T04:51:38.564Z,8.26
2018-12-04T04:54:07.283Z,8.25
2018-12-04T04:56:35.540Z,8.22
2018-12-04T04:59:04.238Z,8.26
2018-12-04T05:01:32.607Z,8.26
2018-12-04T05:04:01.072Z,8.25
2018-12-04T05:06:29.578Z,8.22
2018-12-04T05:08:57.946Z,8.23
2018-12-04T05:11:26.200Z,8.17
2018-12-04T05:13:54.967Z,8.15
2018-12-04T05:16:23.341Z,8.13
2018-12-04T05:18:51.666Z,8.17
2018-12-04T05:21:20.418Z,8.18
2018-12-04T05:23:48.997Z,8.11
2018-12-04T05:26:18.052Z,8.12
2018-12-04T05:28:46.526Z,8.12
2018-12-04T05:31:15.020Z,8.10
2018-12-04T05:33:43.487Z,8.05
2018-12-04T05:36:12.612Z,8.05
2018-12-04T05:38:41.071Z,8.02
2018-12-04T05:41:09.489Z,8.07
2018-12-04T05:43:37.897Z,7.99
2018-12-04T05:46:06.168Z,8.02
2018-12-04T05:48:34.617Z,7.99
2018-12-04T05:51:03.156Z,7.99
2018-12-04T05:53:35.604Z,8.04
2018-12-04T05:56:05.290Z,8.02
2018-12-04T05:58:34.002Z,8.05
2018-12-04T06:01:02.642Z,8.08
2018-12-04T06:03:31.510Z,8.08
2018-12-04T06:06:01.038Z,8.07
2018-12-04T06:08:29.472Z,8.07
2018-12-04T06:10:57.860Z,8.12
2018-12-04T06:13:26.163Z,8.06
2018-12-04T06:15:54.713Z,8.08
2018-12-04T06:18:23.068Z,8.07
2018-12-04T06:20:51.590Z,8.02
2018-12-04T06:23:20.231Z,8.07
2018-12-04T06:25:48.544Z,8.05
2018-12-04T06:28:16.799Z,8.06
2018-12-04T06:30:45.432Z,8.03
2018-12-04T06:33:13.696Z,8.04
2018-12-04T06:35:42.181Z,8.05
2018-12-04T06:38:10.811Z,8.08
2018-12-04T06:40:39.354Z,8.01
2018-12-04T06:43:07.753Z,8.02
2018-12-04T06:45:36.393Z,7.95
2018-12-04T06:48:04.752Z,7.85
2018-12-04T06:50:33.171Z,7.81
2018-12-04T06:53:01.432Z,7.77
2018-12-04T06:55:30.086Z,7.75
2018-12-04T06:57:59.050Z,7.72
2018-12-04T07:00:27.662Z,7.69
2018-12-04T07:02:56.270Z,7.69
2018-12-04T07:05:24.879Z,7.62
2018-12-04T07:08:12.576Z,7.60
2018-12-04T07:10:40.980Z,7.58
2018-12-04T07:13:09.240Z,7.61
2018-12-04T07:15:37.802Z,7.59
2018-12-04T07:18:06.231Z,7.69
2018-12-04T07:20:53.609Z,7.71
2018-12-04T07:23:21.911Z,7.77
2018-12-04T07:25:50.444Z,7.73
2018-12-04T07:28:18.804Z,7.73
2018-12-04T07:30:47.224Z,7.70
2018-12-04T07:33:15.516Z,7.67
2018-12-04T07:35:43.775Z,7.66
2018-12-04T07:38:12.097Z,7.62
2018-12-04T07:40:40.723Z,7.66
2018-12-04T07:43:09.489Z,7.64
2018-12-04T07:48:13.922Z,7.56
2018-12-04T07:50:42.450Z,7.49
2018-12-04T07:53:11.103Z,7.49
2018-12-04T08:00:51.753Z,7.74
2018-12-04T08:03:20.735Z,7.78
2018-12-04T08:05:49.021Z,7.87
2018-12-04T08:08:17.920Z,7.84
2018-12-04T08:10:46.278Z,7.85
2018-12-04T08:13:14.550Z,7.93
2018-12-04T08:15:43.374Z,7.95
2018-12-04T08:18:11.739Z,7.96
2018-12-04T08:20:40.084Z,7.87
2018-12-04T08:23:09.183Z,7.93
2018-12-04T08:25:37.775Z,7.87
2018-12-04T08:28:06.470Z,7.82
2018-12-04T08:30:35.070Z,7.79
2018-12-04T08:33:03.427Z,7.84
2018-12-04T08:35:50.836Z,7.88
2018-12-04T08:38:19.462Z,7.93
2018-12-04T08:40:47.816Z,7.91
2018-12-04T08:43:16.138Z,7.85
2018-12-04T08:45:44.388Z,7.87
2018-12-04T08:48:12.638Z,7.85
2018-12-04T08:50:41.044Z,7.84
2018-12-04T08:53:09.434Z,7.69
2018-12-04T08:55:37.789Z,7.80
2018-12-04T08:58:06.376Z,7.90
2018-12-04T09:03:33.313Z,7.80
2018-12-04T09:06:01.686Z,7.78
2018-12-04T09:08:29.970Z,7.79
2018-12-04T09:10:58.566Z,7.92
2018-12-04T09:13:26.832Z,7.87
2018-12-04T09:15:55.183Z,7.91
2018-12-04T09:18:23.640Z,8.05
2018-12-04T09:20:51.998Z,8.04
2018-12-04T09:23:20.386Z,8.10
2018-12-04T09:25:48.928Z,8.13
2018-12-04T09:28:17.405Z,8.25
2018-12-04T09:30:45.745Z,8.32
2018-12-04T09:33:14.555Z,8.36
2018-12-04T09:35:42.815Z,8.42
2018-12-04T09:38:11.088Z,8.57
2018-12-04T09:40:39.513Z,8.66
2018-12-04T09:43:07.787Z,8.67
2018-12-04T09:45:36.046Z,8.92
2018-12-04T09:48:04.453Z,8.90
2018-12-04T09:50:33.131Z,8.91
2018-12-04T09:53:01.480Z,8.74
2018-12-04T09:55:29.855Z,8.79
2018-12-04T09:57:58.166Z,8.48
2018-12-04T10:00:26.705Z,8.52
2018-12-04T10:02:54.997Z,8.60
2018-12-04T10:05:23.360Z,8.40
2018-12-04T10:07:51.631Z,8.49
2018-12-04T10:10:20.061Z,8.40
2018-12-04T10:12:49.101Z,8.56
2018-12-04T10:15:18.021Z,8.70
2018-12-04T10:17:46.432Z,8.92
2018-12-04T10:20:14.950Z,8.96
2018-12-04T10:22:43.971Z,8.87
2018-12-04T10:25:12.319Z,8.76
2018-12-04T10:27:40.803Z,8.61
2018-12-04T10:30:10.086Z,8.56
2018-12-04T10:32:38.670Z,8.55
2018-12-04T10:35:06.934Z,8.54
2018-12-04T10:37:35.195Z,8.46
2018-12-04T10:40:04.452Z,8.53
2018-12-04T10:42:32.718Z,8.45
2018-12-04T10:45:01.079Z,8.38
2018-12-04T10:47:29.728Z,8.29
2018-12-04T10:49:58.033Z,8.29
2018-12-04T10:52:26.659Z,8.41
2018-12-04T10:54:54.955Z,8.51
2018-12-04T10:57:23.677Z,8.60
2018-12-04T10:59:52.436Z,8.72
2018-12-04T11:13:22.537Z,8.58
2018-12-04T11:15:51.085Z,8.45
2018-12-04T11:18:19.805Z,8.46
2018-12-04T11:20:48.106Z,8.43
2018-12-04T11:23:16.955Z,8.45
2018-12-04T11:25:45.237Z,8.45
2018-12-04T11:28:32.946Z,8.41
2018-12-04T11:31:01.220Z,8.37
2018-12-04T11:33:29.848Z,8.60
2018-12-04T11:35:58.438Z,8.63
2018-12-04T11:38:26.799Z,8.69
2018-12-04T11:40:55.069Z,8.71
2018-12-04T11:43:23.479Z,8.57
2018-12-04T11:45:51.837Z,8.36
2018-12-04T11:48:21.227Z,8.32
2018-12-04T11:50:49.535Z,8.23
2018-12-04T11:53:18.183Z,8.06
2018-12-04T11:55:47.101Z,7.96
2018-12-04T11:58:15.828Z,8.02
2018-12-04T12:00:44.237Z,8.05
2018-12-04T12:03:12.822Z,8.28
2018-12-04T12:05:41.244Z,8.42
2018-12-04T12:08:09.848Z,8.57
2018-12-04T12:10:38.404Z,8.78
2018-12-04T12:13:07.006Z,8.83
2018-12-04T12:15:35.360Z,8.75
2018-12-04T12:18:03.719Z,8.68
2018-12-04T12:20:32.289Z,8.56
2018-12-04T12:23:00.620Z,8.49
2018-12-04T12:25:29.635Z,8.34
2018-12-04T12:27:58.308Z,8.40
2018-12-04T12:30:26.664Z,8.27
2018-12-04T12:32:54.992Z,8.17
2018-12-04T12:35:23.761Z,8.13
2018-12-04T12:37:52.998Z,8.09
2018-12-04T12:40:21.726Z,8.10
2018-12-04T12:42:50.191Z,8.10
2018-12-04T12:45:18.828Z,8.00
2018-12-04T12:48:08.240Z,8.07
2018-12-04T12:50:37.000Z,8.00
2018-12-04T12:53:05.293Z,7.96
2018-12-04T12:55:34.214Z,7.99
2018-12-04T12:58:02.969Z,7.98
2018-12-04T13:00:31.396Z,7.96
2018-12-04T13:03:00.585Z,7.87
2018-12-04T13:05:29.517Z,7.85
2018-12-04T13:08:38.132Z,7.84
2018-12-04T13:11:06.517Z,7.81
2018-12-04T13:13:36.894Z,7.84
2018-12-04T13:18:39.948Z,7.89
2018-12-04T13:21:08.593Z,8.04
2018-12-04T13:23:37.023Z,8.18
2018-12-04T13:26:06.577Z,8.21
2018-12-04T13:28:35.227Z,8.23
2018-12-04T13:31:03.618Z,8.14
2018-12-04T13:33:32.523Z,8.10
2018-12-04T13:36:01.283Z,8.01
2018-12-04T13:38:49.212Z,7.78
2018-12-04T13:41:17.564Z,7.64
2018-12-04T13:43:45.844Z,7.37
2018-12-04T13:46:15.108Z,7.30
2018-12-04T13:48:43.457Z,7.30
2018-12-04T13:51:11.757Z,7.29
2018-12-04T13:53:40.671Z,7.23
2018-12-04T13:56:09.440Z,7.23
2018-12-04T13:58:38.638Z,7.17
2018-12-04T14:01:07.763Z,7.23
2018-12-04T14:03:36.579Z,7.25
2018-12-04T14:06:04.965Z,7.16
2018-12-04T14:08:33.800Z,7.07
2018-12-04T14:11:02.174Z,7.08
2018-12-04T14:13:30.403Z,7.11
2018-12-04T14:15:59.019Z,7.02
2018-12-04T14:18:27.292Z,7.03
2018-12-04T14:20:55.892Z,6.98
2018-12-04T14:23:24.206Z,6.99
2018-12-04T14:25:52.905Z,6.95
2018-12-04T14:28:21.349Z,6.90
2018-12-04T14:30:51.154Z,6.90
2018-12-04T14:33:19.511Z,6.83
2018-12-04T14:35:47.790Z,6.72
2018-12-04T14:38:16.079Z,6.70
2018-12-04T14:40:44.726Z,6.70
2018-12-04T14:43:13.073Z,6.63
2018-12-04T14:45:41.391Z,6.61
2018-12-04T14:48:10.776Z,6.59
2018-12-04T14:50:39.440Z,6.56
2018-12-04T14:53:07.838Z,6.51
2018-12-04T14:55:37.004Z,6.50
2018-12-04T14:58:05.323Z,6.43
2018-12-04T15:00:33.901Z,6.43
2018-12-04T15:03:02.263Z,6.37
2018-12-04T15:05:30.936Z,6.32
2018-12-04T15:07:59.886Z,6.26
2018-12-04T15:10:28.793Z,6.27
2018-12-04T15:12:57.162Z,6.24
2018-12-04T15:15:25.717Z,6.22
2018-12-04T15:17:54.058Z,6.20
2018-12-04T15:20:22.608Z,6.19
2018-12-04T15:22:50.871Z,6.19
2018-12-04T15:25:19.297Z,6.17
2018-12-04T15:28:08.961Z,6.18
2018-12-04T15:30:37.320Z,6.20
2018-12-04T15:33:05.662Z,6.11
2018-12-04T15:35:34.821Z,6.10
2018-12-04T15:38:03.757Z,6.01
2018-12-04T15:40:34.030Z,6.02
2018-12-04T15:43:02.164Z,6.03
2018-12-04T15:45:30.501Z,5.99
2018-12-04T15:47:59.099Z,5.93
2018-12-04T15:50:27.589Z,5.86
2018-12-04T15:53:15.371Z,5.84
2018-12-04T15:55:43.772Z,5.76
2018-12-04T15:58:12.074Z,5.74
2018-12-04T16:00:40.426Z,5.78
2018-12-04T16:03:08.818Z,5.73
2018-12-04T16:05:37.691Z,5.70
2018-12-04T16:08:06.069Z,5.68
2018-12-04T16:10:35.326Z,5.69
2018-12-04T16:13:04.813Z,5.62
2018-12-04T16:15:33.298Z,5.63
2018-12-04T16:18:02.075Z,5.58
2018-12-04T16:20:30.558Z,5.56
2018-12-04T16:22:58.917Z,5.60
2018-12-04T16:25:27.725Z,5.54
2018-12-04T16:27:56.085Z,5.43
2018-12-04T16:30:24.789Z,5.43
2018-12-04T16:32:53.093Z,5.38
2018-12-04T16:35:21.346Z,5.36
2018-12-04T16:37:49.993Z,5.33
2018-12-04T16:40:19.031Z,5.25
2018-12-04T16:42:47.356Z,5.20
2018-12-04T16:45:15.647Z,5.21
2018-12-04T16:47:44.285Z,5.18
2018-12-04T16:50:12.835Z,5.15
2018-12-04T16:52:42.210Z,5.07
2018-12-04T16:55:10.626Z,5.07
2018-12-04T16:57:38.992Z,5.12
2018-12-04T17:00:09.153Z,5.04
2018-12-04T17:02:37.558Z,5.01
2018-12-04T17:05:06.136Z,5.04
2018-12-04T17:07:34.665Z,5.03
2018-12-04T17:10:03.481Z,5.05
2018-12-04T17:12:31.972Z,5.01
2018-12-04T17:15:01.258Z,4.95
2018-12-04T17:17:29.661Z,4.96
2018-12-04T17:19:58.497Z,4.95
2018-12-04T17:22:26.829Z,4.99
2018-12-04T17:24:55.480Z,4.88
2018-12-04T17:27:24.447Z,4.88
2018-12-04T17:29:52.791Z,4.86
2018-12-04T17:32:21.514Z,4.81
2018-12-04T17:34:50.253Z,4.79
2018-12-04T17:37:18.683Z,4.85
2018-12-04T17:39:46.999Z,4.78
2018-12-04T17:42:15.627Z,4.79
2018-12-04T17:44:44.039Z,4.79
2018-12-04T17:47:12.642Z,4.74
2018-12-04T17:49:41.034Z,4.79
2018-12-04T17:52:10.053Z,4.72
2018-12-04T17:54:38.487Z,4.64
2018-12-04T17:57:06.844Z,4.62
2018-12-04T17:59:35.594Z,4.63
2018-12-04T18:02:04.088Z,4.52
2018-12-04T18:04:32.588Z,4.49
2018-12-04T18:07:00.835Z,4.47
2018-12-04T18:09:29.677Z,4.38
2018-12-04T18:11:57.942Z,4.35
2018-12-04T18:14:26.200Z,4.23
2018-12-04T18:16:55.676Z,4.18
2018-12-04T18:19:24.446Z,4.17
2018-12-04T18:21:52.714Z,4.21
2018-12-04T18:24:21.316Z,4.14
2018-12-04T18:26:49.584Z,4.08
2018-12-04T18:29:18.216Z,4.17
2018-12-04T18:31:46.712Z,4.10
2018-12-04T18:34:15.375Z,4.09
2018-12-04T18:36:45.177Z,4.03
2018-12-04T18:39:13.535Z,3.98
2018-12-04T18:41:42.154Z,3.95
2018-12-04T18:44:10.508Z,3.92
2018-12-04T18:46:38.872Z,3.97
2018-12-04T18:49:07.223Z,3.94
2018-12-04T18:51:35.695Z,3.91
2018-12-04T18:54:04.365Z,3.93
2018-12-04T18:56:33.003Z,3.96
2018-12-04T18:59:01.632Z,3.90
2018-12-04T19:01:30.553Z,3.96
2018-12-04T19:03:59.573Z,3.90
2018-12-04T19:06:28.209Z,3.91
2018-12-04T19:08:57.181Z,3.89
2018-12-04T19:13:55.593Z,3.82
2018-12-04T19:16:24.115Z,3.81
2018-12-04T19:18:52.981Z,3.80
2018-12-04T19:21:42.432Z,3.72
2018-12-04T19:24:12.040Z,3.68
2018-12-04T19:26:40.552Z,3.60
2018-12-04T19:29:28.492Z,3.57
2018-12-04T19:32:16.560Z,3.58
2018-12-04T19:34:44.977Z,3.54
2018-12-04T19:37:13.366Z,3.47
2018-12-04T19:39:41.936Z,3.38
2018-12-04T19:42:10.576Z,3.42
2018-12-04T19:44:57.946Z,3.42
2018-12-04T19:47:26.928Z,3.36
2018-12-04T19:49:56.201Z,3.24
2018-12-04T19:52:25.253Z,3.31
2018-12-04T19:54:54.185Z,3.24
2018-12-04T19:57:23.355Z,3.28
2018-12-04T19:59:52.546Z,3.27
2018-12-04T20:02:21.718Z,3.27
2018-12-04T20:04:50.898Z,3.25
2018-12-04T20:07:19.164Z,3.24
2018-12-04T20:09:47.590Z,3.32
2018-12-04T20:12:16.563Z,3.24
2018-12-04T20:14:44.819Z,3.26
2018-12-04T20:17:32.997Z,3.20
2018-12-04T20:20:01.328Z,3.19
2018-12-04T20:22:30.174Z,3.18
2018-12-04T20:24:59.148Z,3.22
2018-12-04T20:27:28.699Z,3.17
2018-12-04T20:29:57.983Z,3.18
2018-12-04T20:32:26.749Z,3.18
2018-12-04T20:35:16.425Z,3.23
2018-12-04T20:37:45.219Z,3.19
2018-12-04T20:40:14.858Z,3.16
2018-12-04T20:42:44.667Z,3.11
2018-12-04T20:45:32.742Z,3.14
2018-12-04T20:48:01.068Z,3.13
2018-12-04T20:50:29.428Z,3.12
2018-12-04T20:52:58.285Z,2.99
2018-12-04T20:55:27.839Z,2.99
2018-12-04T20:57:56.254Z,2.94
2018-12-04T21:00:24.874Z,2.98
2018-12-04T21:02:53.145Z,2.90
2018-12-04T21:05:22.462Z,2.94
2018-12-04T21:07:51.002Z,2.87
2018-12-04T21:10:19.599Z,2.94
2018-12-04T21:12:48.273Z,2.86
2018-12-04T21:15:17.198Z,2.81
2018-12-04T21:17:45.750Z,2.83
2018-12-04T21:20:14.289Z,2.79
2018-12-04T21:22:42.613Z,2.90
2018-12-04T21:25:10.921Z,2.95
2018-12-04T21:27:58.355Z,3.02
2018-12-04T21:30:45.881Z,2.91
2018-12-04T21:34:03.609Z,2.98
2018-12-04T21:37:12.279Z,3.00
2018-12-04T21:40:23.696Z,3.02
2018-12-04T21:43:11.370Z,3.03
2018-12-04T21:46:02.488Z,3.06
2018-12-04T21:55:33.776Z,2.99
2018-12-04T21:58:02.343Z,2.92
2018-12-04T22:00:30.629Z,2.88
2018-12-04T22:02:59.059Z,3.00
2018-12-04T22:05:27.421Z,2.95
2018-12-04T22:07:55.754Z,2.91
2018-12-04T22:10:24.485Z,2.88
2018-12-04T22:12:52.964Z,2.83
2018-12-04T22:15:21.332Z,2.83
2018-12-04T22:17:49.611Z,2.77
2018-12-04T22:20:18.282Z,2.78
2018-12-04T22:22:46.587Z,2.81
2018-12-04T22:25:34.231Z,2.79
2018-12-04T22:28:04.046Z,2.77
2018-12-04T22:30:32.977Z,2.75
2018-12-04T22:33:01.329Z,2.78
2018-12-04T22:35:29.620Z,2.87
2018-12-04T22:37:58.263Z,2.91
2018-12-04T22:40:26.946Z,2.88
2018-12-04T22:42:55.583Z,2.86
2018-12-04T22:53:52.359Z,2.93
2018-12-04T22:56:20.408Z,2.91
2018-12-04T22:58:49.524Z,2.95
2018-12-04T23:01:39.158Z,2.90
2018-12-04T23:04:07.736Z,2.85
2018-12-04T23:06:36.037Z,2.88
2018-12-04T23:09:09.221Z,2.87
2018-12-04T23:11:38.489Z,2.78
2018-12-04T23:14:07.132Z,2.82
2018-12-04T23:16:36.088Z,2.88
2018-12-04T23:19:04.736Z,2.84
2018-12-04T23:21:33.420Z,2.82
2018-12-04T23:24:01.817Z,2.71
2018-12-04T23:26:30.465Z,2.60
2018-12-04T23:28:58.911Z,2.73
2018-12-04T23:31:27.338Z,2.60
2018-12-04T23:33:55.668Z,2.71
2018-12-04T23:36:24.411Z,2.76
2018-12-04T23:38:53.341Z,2.73
2018-12-04T23:41:22.015Z,2.77
2018-12-04T23:43:50.533Z,2.83
2018-12-04T23:46:19.287Z,2.77
2018-12-04T23:48:48.484Z,2.73
2018-12-04T23:51:16.749Z,2.77
2018-12-04T23:53:45.448Z,2.73
2018-12-04T23:56:13.819Z,2.70
2018-12-04T23:58:42.200Z,2.58
